sensor_id;sensor_type;location;lat;lon;timestamp;temperature;humidity
7708;DHT22;3896;48.758;8.888;2023-06-24T00:00:02;16.20;76.30
7708;DHT22;3896;48.758;8.888;2023-06-24T00:02:32;16.10;76.70
7708;DHT22;3896;48.758;8.888;2023-06-24T00:04:59;16.10;76.80
7708;DHT22;3896;48.758;8.888;2023-06-24T00:07:26;16.00;76.90
7708;DHT22;3896;48.758;8.888;2023-06-24T00:09:52;16.00;77.20
7708;DHT22;3896;48.758;8.888;2023-06-24T00:12:17;15.90;77.40
7708;DHT22;3896;48.758;8.888;2023-06-24T00:14:49;15.90;77.80
7708;DHT22;3896;48.758;8.888;2023-06-24T00:17:15;15.80;77.90
7708;DHT22;3896;48.758;8.888;2023-06-24T00:19:42;15.80;78.40
7708;DHT22;3896;48.758;8.888;2023-06-24T00:22:09;15.70;78.90
7708;DHT22;3896;48.758;8.888;2023-06-24T00:24:34;15.70;78.90
7708;DHT22;3896;48.758;8.888;2023-06-24T00:27:00;15.60;79.10
7708;DHT22;3896;48.758;8.888;2023-06-24T00:29:25;15.60;79.40
7708;DHT22;3896;48.758;8.888;2023-06-24T00:31:51;15.50;79.70
7708;DHT22;3896;48.758;8.888;2023-06-24T00:34:16;15.50;79.80
7708;DHT22;3896;48.758;8.888;2023-06-24T00:36:45;15.40;80.10
7708;DHT22;3896;48.758;8.888;2023-06-24T00:39:12;15.40;80.50
7708;DHT22;3896;48.758;8.888;2023-06-24T00:41:38;15.40;81.00
7708;DHT22;3896;48.758;8.888;2023-06-24T00:44:03;15.30;81.10
7708;DHT22;3896;48.758;8.888;2023-06-24T00:46:29;15.30;81.40
7708;DHT22;3896;48.758;8.888;2023-06-24T00:48:58;15.20;81.60
7708;DHT22;3896;48.758;8.888;2023-06-24T00:51:24;15.20;81.80
7708;DHT22;3896;48.758;8.888;2023-06-24T00:53:56;15.10;82.20
7708;DHT22;3896;48.758;8.888;2023-06-24T00:56:22;15.10;82.30
7708;DHT22;3896;48.758;8.888;2023-06-24T00:58:51;15.10;83.10
7708;DHT22;3896;48.758;8.888;2023-06-24T01:01:17;15.00;83.50
7708;DHT22;3896;48.758;8.888;2023-06-24T01:03:43;15.00;84.00
7708;DHT22;3896;48.758;8.888;2023-06-24T01:06:09;14.90;84.60
7708;DHT22;3896;48.758;8.888;2023-06-24T01:08:35;14.90;85.10
7708;DHT22;3896;48.758;8.888;2023-06-24T01:11:01;14.80;85.40
7708;DHT22;3896;48.758;8.888;2023-06-24T01:13:26;14.80;85.70
7708;DHT22;3896;48.758;8.888;2023-06-24T01:15:52;14.80;86.00
7708;DHT22;3896;48.758;8.888;2023-06-24T01:18:24;14.70;86.20
7708;DHT22;3896;48.758;8.888;2023-06-24T01:21:03;14.70;87.00
7708;DHT22;3896;48.758;8.888;2023-06-24T01:26:20;14.60;88.00
7708;DHT22;3896;48.758;8.888;2023-06-24T01:29:20;14.50;87.20
7708;DHT22;3896;48.758;8.888;2023-06-24T01:34:49;14.40;88.90
7708;DHT22;3896;48.758;8.888;2023-06-24T01:37:21;14.40;89.00
7708;DHT22;3896;48.758;8.888;2023-06-24T01:40:05;14.40;89.40
7708;DHT22;3896;48.758;8.888;2023-06-24T01:42:53;14.30;89.10
7708;DHT22;3896;48.758;8.888;2023-06-24T01:45:23;14.30;90.00
7708;DHT22;3896;48.758;8.888;2023-06-24T01:47:58;14.30;90.00
7708;DHT22;3896;48.758;8.888;2023-06-24T01:50:26;14.20;90.10
7708;DHT22;3896;48.758;8.888;2023-06-24T01:52:53;14.20;90.40
7708;DHT22;3896;48.758;8.888;2023-06-24T01:55:21;14.20;90.60
7708;DHT22;3896;48.758;8.888;2023-06-24T01:57:48;14.20;90.70
7708;DHT22;3896;48.758;8.888;2023-06-24T02:00:17;14.10;90.90
7708;DHT22;3896;48.758;8.888;2023-06-24T02:02:43;14.10;90.90
7708;DHT22;3896;48.758;8.888;2023-06-24T02:05:09;14.00;91.00
7708;DHT22;3896;48.758;8.888;2023-06-24T02:07:36;14.00;91.00
7708;DHT22;3896;48.758;8.888;2023-06-24T02:10:03;14.00;91.30
7708;DHT22;3896;48.758;8.888;2023-06-24T02:12:30;13.90;91.40
7708;DHT22;3896;48.758;8.888;2023-06-24T02:14:56;13.90;91.40
7708;DHT22;3896;48.758;8.888;2023-06-24T02:17:25;13.90;91.50
7708;DHT22;3896;48.758;8.888;2023-06-24T02:19:52;13.90;91.50
7708;DHT22;3896;48.758;8.888;2023-06-24T02:22:20;13.80;91.60
7708;DHT22;3896;48.758;8.888;2023-06-24T02:24:48;13.80;91.70
7708;DHT22;3896;48.758;8.888;2023-06-24T02:27:14;13.70;91.80
7708;DHT22;3896;48.758;8.888;2023-06-24T02:29:40;13.70;92.00
7708;DHT22;3896;48.758;8.888;2023-06-24T02:32:07;13.70;92.20
7708;DHT22;3896;48.758;8.888;2023-06-24T02:34:34;13.70;92.40
7708;DHT22;3896;48.758;8.888;2023-06-24T02:37:00;13.60;92.60
7708;DHT22;3896;48.758;8.888;2023-06-24T02:39:25;13.60;92.90
7708;DHT22;3896;48.758;8.888;2023-06-24T02:41:51;13.50;93.00
7708;DHT22;3896;48.758;8.888;2023-06-24T02:44:16;13.50;93.00
7708;DHT22;3896;48.758;8.888;2023-06-24T02:46:43;13.50;93.00
7708;DHT22;3896;48.758;8.888;2023-06-24T02:49:10;13.40;93.00
7708;DHT22;3896;48.758;8.888;2023-06-24T02:51:38;13.40;93.00
7708;DHT22;3896;48.758;8.888;2023-06-24T02:54:04;13.40;93.10
7708;DHT22;3896;48.758;8.888;2023-06-24T02:56:30;13.40;93.20
7708;DHT22;3896;48.758;8.888;2023-06-24T02:58:56;13.30;93.30
7708;DHT22;3896;48.758;8.888;2023-06-24T03:01:22;13.30;93.60
7708;DHT22;3896;48.758;8.888;2023-06-24T03:03:55;13.30;93.70
7708;DHT22;3896;48.758;8.888;2023-06-24T03:06:21;13.20;93.70
7708;DHT22;3896;48.758;8.888;2023-06-24T03:08:48;13.20;93.80
7708;DHT22;3896;48.758;8.888;2023-06-24T03:11:14;13.20;94.10
7708;DHT22;3896;48.758;8.888;2023-06-24T03:13:41;13.20;94.20
7708;DHT22;3896;48.758;8.888;2023-06-24T03:16:07;13.10;94.50
7708;DHT22;3896;48.758;8.888;2023-06-24T03:18:40;13.10;94.70
7708;DHT22;3896;48.758;8.888;2023-06-24T03:21:06;13.10;94.80
7708;DHT22;3896;48.758;8.888;2023-06-24T03:23:32;13.00;95.20
7708;DHT22;3896;48.758;8.888;2023-06-24T03:25:57;13.00;95.40
7708;DHT22;3896;48.758;8.888;2023-06-24T03:28:23;13.00;95.90
7708;DHT22;3896;48.758;8.888;2023-06-24T03:30:48;13.00;96.10
7708;DHT22;3896;48.758;8.888;2023-06-24T03:33:14;13.00;96.20
7708;DHT22;3896;48.758;8.888;2023-06-24T03:35:42;13.00;96.30
7708;DHT22;3896;48.758;8.888;2023-06-24T03:38:08;12.90;96.40
7708;DHT22;3896;48.758;8.888;2023-06-24T03:40:34;12.90;96.80
7708;DHT22;3896;48.758;8.888;2023-06-24T03:42:59;12.90;97.00
7708;DHT22;3896;48.758;8.888;2023-06-24T03:45:25;12.90;97.20
7708;DHT22;3896;48.758;8.888;2023-06-24T03:47:51;12.90;97.40
7708;DHT22;3896;48.758;8.888;2023-06-24T03:50:16;12.90;97.70
7708;DHT22;3896;48.758;8.888;2023-06-24T03:52:42;12.90;97.90
7708;DHT22;3896;48.758;8.888;2023-06-24T03:55:09;12.90;98.10
7708;DHT22;3896;48.758;8.888;2023-06-24T03:57:36;12.90;98.40
7708;DHT22;3896;48.758;8.888;2023-06-24T04:00:03;12.90;99.00
7708;DHT22;3896;48.758;8.888;2023-06-24T04:02:44;12.90;99.20
7708;DHT22;3896;48.758;8.888;2023-06-24T04:05:10;12.90;99.60
7708;DHT22;3896;48.758;8.888;2023-06-24T04:07:36;12.90;99.90
7708;DHT22;3896;48.758;8.888;2023-06-24T04:10:05;12.90;99.90
7708;DHT22;3896;48.758;8.888;2023-06-24T04:12:35;12.90;99.90
7708;DHT22;3896;48.758;8.888;2023-06-24T04:15:04;12.90;99.90
7708;DHT22;3896;48.758;8.888;2023-06-24T04:17:30;12.90;99.90
7708;DHT22;3896;48.758;8.888;2023-06-24T04:19:56;12.90;99.90
7708;DHT22;3896;48.758;8.888;2023-06-24T04:22:23;12.90;99.90
7708;DHT22;3896;48.758;8.888;2023-06-24T04:24:48;12.90;99.90
7708;DHT22;3896;48.758;8.888;2023-06-24T04:27:14;13.00;99.90
7708;DHT22;3896;48.758;8.888;2023-06-24T04:29:39;13.00;99.90
7708;DHT22;3896;48.758;8.888;2023-06-24T04:32:05;13.00;99.90
7708;DHT22;3896;48.758;8.888;2023-06-24T04:34:31;13.00;99.90
7708;DHT22;3896;48.758;8.888;2023-06-24T04:36:57;13.10;99.90
7708;DHT22;3896;48.758;8.888;2023-06-24T04:39:23;13.10;99.90
7708;DHT22;3896;48.758;8.888;2023-06-24T04:41:49;13.10;99.90
7708;DHT22;3896;48.758;8.888;2023-06-24T04:44:14;13.10;99.90
7708;DHT22;3896;48.758;8.888;2023-06-24T04:46:40;13.20;99.90
7708;DHT22;3896;48.758;8.888;2023-06-24T04:49:06;13.20;99.90
7708;DHT22;3896;48.758;8.888;2023-06-24T04:51:32;13.20;99.90
7708;DHT22;3896;48.758;8.888;2023-06-24T04:53:58;13.30;99.90
7708;DHT22;3896;48.758;8.888;2023-06-24T04:56:23;13.30;99.90
7708;DHT22;3896;48.758;8.888;2023-06-24T04:58:50;13.30;99.90
7708;DHT22;3896;48.758;8.888;2023-06-24T05:01:15;13.40;99.90
7708;DHT22;3896;48.758;8.888;2023-06-24T05:03:41;13.40;99.90
7708;DHT22;3896;48.758;8.888;2023-06-24T05:06:06;13.50;99.90
7708;DHT22;3896;48.758;8.888;2023-06-24T05:08:32;13.50;99.90
7708;DHT22;3896;48.758;8.888;2023-06-24T05:10:58;13.60;99.90
7708;DHT22;3896;48.758;8.888;2023-06-24T05:13:24;13.70;99.90
7708;DHT22;3896;48.758;8.888;2023-06-24T05:15:49;13.70;99.90
7708;DHT22;3896;48.758;8.888;2023-06-24T05:18:15;13.80;99.90
7708;DHT22;3896;48.758;8.888;2023-06-24T05:20:42;13.80;99.90
7708;DHT22;3896;48.758;8.888;2023-06-24T05:23:07;13.90;99.90
7708;DHT22;3896;48.758;8.888;2023-06-24T05:25:33;13.90;99.90
7708;DHT22;3896;48.758;8.888;2023-06-24T05:27:58;14.00;99.90
7708;DHT22;3896;48.758;8.888;2023-06-24T05:30:24;14.10;99.90
7708;DHT22;3896;48.758;8.888;2023-06-24T05:32:50;14.10;99.90
7708;DHT22;3896;48.758;8.888;2023-06-24T05:35:15;14.20;99.90
7708;DHT22;3896;48.758;8.888;2023-06-24T05:37:41;14.30;99.90
7708;DHT22;3896;48.758;8.888;2023-06-24T05:40:07;14.30;99.90
7708;DHT22;3896;48.758;8.888;2023-06-24T05:42:33;14.40;99.90
7708;DHT22;3896;48.758;8.888;2023-06-24T05:44:59;14.50;99.90
7708;DHT22;3896;48.758;8.888;2023-06-24T05:47:24;14.50;99.90
7708;DHT22;3896;48.758;8.888;2023-06-24T05:49:50;14.60;99.90
7708;DHT22;3896;48.758;8.888;2023-06-24T05:52:15;14.70;99.90
7708;DHT22;3896;48.758;8.888;2023-06-24T05:54:41;14.80;99.90
7708;DHT22;3896;48.758;8.888;2023-06-24T05:57:06;14.80;99.90
7708;DHT22;3896;48.758;8.888;2023-06-24T05:59:33;14.90;99.90
7708;DHT22;3896;48.758;8.888;2023-06-24T06:01:58;15.00;99.90
7708;DHT22;3896;48.758;8.888;2023-06-24T06:04:24;15.10;99.90
7708;DHT22;3896;48.758;8.888;2023-06-24T06:06:50;15.10;99.90
7708;DHT22;3896;48.758;8.888;2023-06-24T06:09:15;15.20;99.90
7708;DHT22;3896;48.758;8.888;2023-06-24T06:11:41;15.30;99.90
7708;DHT22;3896;48.758;8.888;2023-06-24T06:14:07;15.40;99.90
7708;DHT22;3896;48.758;8.888;2023-06-24T06:16:32;15.50;99.90
7708;DHT22;3896;48.758;8.888;2023-06-24T06:18:58;15.60;99.90
7708;DHT22;3896;48.758;8.888;2023-06-24T06:21:24;15.70;99.90
7708;DHT22;3896;48.758;8.888;2023-06-24T06:23:50;15.70;99.90
7708;DHT22;3896;48.758;8.888;2023-06-24T06:26:15;15.80;99.90
7708;DHT22;3896;48.758;8.888;2023-06-24T06:28:41;15.90;99.90
7708;DHT22;3896;48.758;8.888;2023-06-24T06:31:06;16.00;99.90
7708;DHT22;3896;48.758;8.888;2023-06-24T06:33:32;16.10;99.90
7708;DHT22;3896;48.758;8.888;2023-06-24T06:35:57;16.20;99.90
7708;DHT22;3896;48.758;8.888;2023-06-24T06:38:24;16.30;99.90
7708;DHT22;3896;48.758;8.888;2023-06-24T06:40:49;16.40;99.90
7708;DHT22;3896;48.758;8.888;2023-06-24T06:43:15;16.50;99.90
7708;DHT22;3896;48.758;8.888;2023-06-24T06:45:40;16.60;99.90
7708;DHT22;3896;48.758;8.888;2023-06-24T06:48:06;16.70;99.90
7708;DHT22;3896;48.758;8.888;2023-06-24T06:50:33;16.70;99.90
7708;DHT22;3896;48.758;8.888;2023-06-24T06:52:59;16.80;99.90
7708;DHT22;3896;48.758;8.888;2023-06-24T06:55:25;16.90;99.90
7708;DHT22;3896;48.758;8.888;2023-06-24T06:57:50;17.10;99.90
7708;DHT22;3896;48.758;8.888;2023-06-24T07:00:16;17.10;99.90
7708;DHT22;3896;48.758;8.888;2023-06-24T07:02:42;17.30;99.90
7708;DHT22;3896;48.758;8.888;2023-06-24T07:05:08;17.40;99.80
7708;DHT22;3896;48.758;8.888;2023-06-24T07:07:39;17.50;99.30
7708;DHT22;3896;48.758;8.888;2023-06-24T07:10:05;17.60;98.60
7708;DHT22;3896;48.758;8.888;2023-06-24T07:12:31;17.70;98.20
7708;DHT22;3896;48.758;8.888;2023-06-24T07:14:56;17.80;97.50
7708;DHT22;3896;48.758;8.888;2023-06-24T07:17:22;17.90;97.20
7708;DHT22;3896;48.758;8.888;2023-06-24T07:19:48;18.00;96.60
7708;DHT22;3896;48.758;8.888;2023-06-24T07:22:14;18.10;96.50
7708;DHT22;3896;48.758;8.888;2023-06-24T07:24:39;18.20;95.70
7708;DHT22;3896;48.758;8.888;2023-06-24T07:27:05;18.30;95.20
7708;DHT22;3896;48.758;8.888;2023-06-24T07:29:31;18.40;94.60
7708;DHT22;3896;48.758;8.888;2023-06-24T07:31:57;18.60;93.80
7708;DHT22;3896;48.758;8.888;2023-06-24T07:34:22;18.70;93.50
7708;DHT22;3896;48.758;8.888;2023-06-24T07:36:48;18.80;93.20
7708;DHT22;3896;48.758;8.888;2023-06-24T07:39:16;19.00;92.70
7708;DHT22;3896;48.758;8.888;2023-06-24T07:41:41;19.00;92.00
7708;DHT22;3896;48.758;8.888;2023-06-24T07:44:08;19.10;91.90
7708;DHT22;3896;48.758;8.888;2023-06-24T07:46:34;19.30;91.60
7708;DHT22;3896;48.758;8.888;2023-06-24T07:48:59;19.40;90.90
7708;DHT22;3896;48.758;8.888;2023-06-24T07:51:25;19.50;90.40
7708;DHT22;3896;48.758;8.888;2023-06-24T07:53:50;19.60;89.60
7708;DHT22;3896;48.758;8.888;2023-06-24T07:56:16;19.80;88.10
7708;DHT22;3896;48.758;8.888;2023-06-24T07:58:41;19.90;86.50
7708;DHT22;3896;48.758;8.888;2023-06-24T08:01:07;20.00;85.70
7708;DHT22;3896;48.758;8.888;2023-06-24T08:03:33;20.10;84.60
7708;DHT22;3896;48.758;8.888;2023-06-24T08:05:59;20.30;83.60
7708;DHT22;3896;48.758;8.888;2023-06-24T08:08:24;20.40;83.10
7708;DHT22;3896;48.758;8.888;2023-06-24T08:10:50;20.60;83.40
7708;DHT22;3896;48.758;8.888;2023-06-24T08:13:15;20.70;82.30
7708;DHT22;3896;48.758;8.888;2023-06-24T08:15:41;20.80;80.70
7708;DHT22;3896;48.758;8.888;2023-06-24T08:18:06;20.90;80.10
7708;DHT22;3896;48.758;8.888;2023-06-24T08:20:32;21.10;79.50
7708;DHT22;3896;48.758;8.888;2023-06-24T08:22:57;21.20;78.50
7708;DHT22;3896;48.758;8.888;2023-06-24T08:25:23;21.40;77.80
7708;DHT22;3896;48.758;8.888;2023-06-24T08:27:49;21.50;76.60
7708;DHT22;3896;48.758;8.888;2023-06-24T08:30:14;21.60;76.20
7708;DHT22;3896;48.758;8.888;2023-06-24T08:32:43;21.80;75.40
7708;DHT22;3896;48.758;8.888;2023-06-24T08:35:09;21.90;74.20
7708;DHT22;3896;48.758;8.888;2023-06-24T08:37:36;22.10;73.10
7708;DHT22;3896;48.758;8.888;2023-06-24T08:40:02;22.30;72.30
7708;DHT22;3896;48.758;8.888;2023-06-24T08:42:30;22.40;71.00
7708;DHT22;3896;48.758;8.888;2023-06-24T08:44:55;22.60;69.60
7708;DHT22;3896;48.758;8.888;2023-06-24T08:47:24;22.70;68.20
7708;DHT22;3896;48.758;8.888;2023-06-24T08:49:53;22.90;66.40
7708;DHT22;3896;48.758;8.888;2023-06-24T08:52:25;23.00;64.10
7708;DHT22;3896;48.758;8.888;2023-06-24T08:54:51;23.10;64.10
7708;DHT22;3896;48.758;8.888;2023-06-24T08:57:16;23.20;63.50
7708;DHT22;3896;48.758;8.888;2023-06-24T08:59:43;23.40;63.20
7708;DHT22;3896;48.758;8.888;2023-06-24T09:02:09;23.50;62.60
7708;DHT22;3896;48.758;8.888;2023-06-24T09:04:36;23.70;61.90
7708;DHT22;3896;48.758;8.888;2023-06-24T09:07:02;23.80;61.80
7708;DHT22;3896;48.758;8.888;2023-06-24T09:09:28;24.00;61.20
7708;DHT22;3896;48.758;8.888;2023-06-24T09:11:59;24.10;60.60
7708;DHT22;3896;48.758;8.888;2023-06-24T09:14:26;24.20;59.60
7708;DHT22;3896;48.758;8.888;2023-06-24T09:16:53;24.40;59.20
7708;DHT22;3896;48.758;8.888;2023-06-24T09:19:23;24.60;58.60
7708;DHT22;3896;48.758;8.888;2023-06-24T09:21:50;24.70;58.00
7708;DHT22;3896;48.758;8.888;2023-06-24T09:24:18;25.00;57.50
7708;DHT22;3896;48.758;8.888;2023-06-24T09:26:44;25.10;57.20
7708;DHT22;3896;48.758;8.888;2023-06-24T09:29:13;25.20;56.50
7708;DHT22;3896;48.758;8.888;2023-06-24T09:31:49;25.40;56.40
7708;DHT22;3896;48.758;8.888;2023-06-24T09:34:16;25.50;55.50
7708;DHT22;3896;48.758;8.888;2023-06-24T09:36:43;25.60;55.00
7708;DHT22;3896;48.758;8.888;2023-06-24T09:39:09;25.70;54.90
7708;DHT22;3896;48.758;8.888;2023-06-24T09:41:35;25.80;54.70
7708;DHT22;3896;48.758;8.888;2023-06-24T09:44:02;25.90;54.80
7708;DHT22;3896;48.758;8.888;2023-06-24T09:46:30;26.00;54.40
7708;DHT22;3896;48.758;8.888;2023-06-24T09:48:55;26.10;53.90
7708;DHT22;3896;48.758;8.888;2023-06-24T09:51:22;26.30;54.00
7708;DHT22;3896;48.758;8.888;2023-06-24T09:53:52;26.30;54.10
7708;DHT22;3896;48.758;8.888;2023-06-24T09:56:20;26.40;53.90
7708;DHT22;3896;48.758;8.888;2023-06-24T09:58:46;26.60;53.80
7708;DHT22;3896;48.758;8.888;2023-06-24T10:01:12;26.70;53.40
7708;DHT22;3896;48.758;8.888;2023-06-24T10:03:39;26.90;53.10
7708;DHT22;3896;48.758;8.888;2023-06-24T10:06:05;26.90;52.70
7708;DHT22;3896;48.758;8.888;2023-06-24T10:08:31;27.10;52.30
7708;DHT22;3896;48.758;8.888;2023-06-24T10:10:58;27.10;52.20
7708;DHT22;3896;48.758;8.888;2023-06-24T10:13:24;27.20;50.20
7708;DHT22;3896;48.758;8.888;2023-06-24T10:15:50;27.20;48.50
7708;DHT22;3896;48.758;8.888;2023-06-24T10:20:56;27.10;48.80
7708;DHT22;3896;48.758;8.888;2023-06-24T10:26:35;27.20;49.00
7708;DHT22;3896;48.758;8.888;2023-06-24T10:36:53;27.70;48.40
7708;DHT22;3896;48.758;8.888;2023-06-24T10:47:37;28.20;47.30
7708;DHT22;3896;48.758;8.888;2023-06-24T10:50:04;28.40;46.30
7708;DHT22;3896;48.758;8.888;2023-06-24T10:52:30;28.60;45.50
7708;DHT22;3896;48.758;8.888;2023-06-24T10:54:57;28.70;45.20
7708;DHT22;3896;48.758;8.888;2023-06-24T10:57:27;28.70;44.70
7708;DHT22;3896;48.758;8.888;2023-06-24T10:59:54;28.80;44.80
7708;DHT22;3896;48.758;8.888;2023-06-24T11:02:27;28.90;44.80
7708;DHT22;3896;48.758;8.888;2023-06-24T11:04:54;29.00;44.50
7708;DHT22;3896;48.758;8.888;2023-06-24T11:07:24;29.20;44.20
7708;DHT22;3896;48.758;8.888;2023-06-24T11:09:54;29.40;43.40
7708;DHT22;3896;48.758;8.888;2023-06-24T11:12:24;29.60;41.80
7708;DHT22;3896;48.758;8.888;2023-06-24T11:14:50;29.70;40.90
7708;DHT22;3896;48.758;8.888;2023-06-24T11:17:15;29.90;40.80
7708;DHT22;3896;48.758;8.888;2023-06-24T11:19:41;29.90;40.60
7708;DHT22;3896;48.758;8.888;2023-06-24T11:22:09;30.10;41.00
7708;DHT22;3896;48.758;8.888;2023-06-24T11:24:35;30.20;40.80
7708;DHT22;3896;48.758;8.888;2023-06-24T11:27:04;30.30;40.50
7708;DHT22;3896;48.758;8.888;2023-06-24T11:29:29;30.30;40.40
7708;DHT22;3896;48.758;8.888;2023-06-24T11:31:56;30.50;40.10
7708;DHT22;3896;48.758;8.888;2023-06-24T11:34:21;30.60;40.40
7708;DHT22;3896;48.758;8.888;2023-06-24T11:36:48;30.70;40.50
7708;DHT22;3896;48.758;8.888;2023-06-24T11:39:27;30.80;40.20
7708;DHT22;3896;48.758;8.888;2023-06-24T11:41:53;30.80;39.50
7708;DHT22;3896;48.758;8.888;2023-06-24T11:44:20;30.90;39.20
7708;DHT22;3896;48.758;8.888;2023-06-24T11:46:46;31.10;39.30
7708;DHT22;3896;48.758;8.888;2023-06-24T11:49:12;31.20;38.60
7708;DHT22;3896;48.758;8.888;2023-06-24T11:51:46;31.30;37.90
7708;DHT22;3896;48.758;8.888;2023-06-24T11:54:16;31.40;37.20
7708;DHT22;3896;48.758;8.888;2023-06-24T11:56:43;31.60;37.00
7708;DHT22;3896;48.758;8.888;2023-06-24T11:59:19;31.70;36.10
7708;DHT22;3896;48.758;8.888;2023-06-24T12:01:52;31.70;35.70
7708;DHT22;3896;48.758;8.888;2023-06-24T12:04:18;31.90;36.40
7708;DHT22;3896;48.758;8.888;2023-06-24T12:06:44;31.90;36.70
7708;DHT22;3896;48.758;8.888;2023-06-24T12:09:10;32.20;36.20
7708;DHT22;3896;48.758;8.888;2023-06-24T12:11:36;32.30;36.00
7708;DHT22;3896;48.758;8.888;2023-06-24T12:14:02;32.50;34.60
7708;DHT22;3896;48.758;8.888;2023-06-24T12:16:28;32.60;34.40
7708;DHT22;3896;48.758;8.888;2023-06-24T12:18:55;32.60;34.50
7708;DHT22;3896;48.758;8.888;2023-06-24T12:21:20;32.80;34.30
7708;DHT22;3896;48.758;8.888;2023-06-24T12:23:46;32.80;34.10
7708;DHT22;3896;48.758;8.888;2023-06-24T12:26:12;32.90;34.40
7708;DHT22;3896;48.758;8.888;2023-06-24T12:28:37;33.00;34.60
7708;DHT22;3896;48.758;8.888;2023-06-24T12:31:03;33.10;34.40
7708;DHT22;3896;48.758;8.888;2023-06-24T12:33:29;33.30;34.50
7708;DHT22;3896;48.758;8.888;2023-06-24T12:35:55;33.30;34.40
7708;DHT22;3896;48.758;8.888;2023-06-24T12:38:20;33.40;33.90
7708;DHT22;3896;48.758;8.888;2023-06-24T12:40:46;33.60;33.10
7708;DHT22;3896;48.758;8.888;2023-06-24T12:43:13;33.60;32.20
7708;DHT22;3896;48.758;8.888;2023-06-24T12:45:39;33.70;32.70
7708;DHT22;3896;48.758;8.888;2023-06-24T12:48:05;33.80;32.70
7708;DHT22;3896;48.758;8.888;2023-06-24T12:50:30;33.90;31.90
7708;DHT22;3896;48.758;8.888;2023-06-24T12:52:57;33.90;31.40
7708;DHT22;3896;48.758;8.888;2023-06-24T12:55:23;34.10;32.10
7708;DHT22;3896;48.758;8.888;2023-06-24T12:57:49;34.10;32.10
7708;DHT22;3896;48.758;8.888;2023-06-24T13:00:14;34.20;32.20
7708;DHT22;3896;48.758;8.888;2023-06-24T13:02:40;34.40;32.00
7708;DHT22;3896;48.758;8.888;2023-06-24T13:05:06;34.50;31.70
7708;DHT22;3896;48.758;8.888;2023-06-24T13:07:32;34.60;31.80
7708;DHT22;3896;48.758;8.888;2023-06-24T13:09:57;34.70;31.40
7708;DHT22;3896;48.758;8.888;2023-06-24T13:12:24;34.80;30.90
7708;DHT22;3896;48.758;8.888;2023-06-24T13:14:50;34.90;30.80
7708;DHT22;3896;48.758;8.888;2023-06-24T13:17:15;35.00;30.60
7708;DHT22;3896;48.758;8.888;2023-06-24T13:19:41;35.10;30.00
7708;DHT22;3896;48.758;8.888;2023-06-24T13:22:06;35.30;29.60
7708;DHT22;3896;48.758;8.888;2023-06-24T13:24:32;35.40;29.80
7708;DHT22;3896;48.758;8.888;2023-06-24T13:26:57;35.50;30.10
7708;DHT22;3896;48.758;8.888;2023-06-24T13:29:23;35.60;30.20
7708;DHT22;3896;48.758;8.888;2023-06-24T13:31:48;35.70;29.90
7708;DHT22;3896;48.758;8.888;2023-06-24T13:34:14;35.80;29.50
7708;DHT22;3896;48.758;8.888;2023-06-24T13:36:40;35.90;29.50
7708;DHT22;3896;48.758;8.888;2023-06-24T13:39:09;36.00;28.60
7708;DHT22;3896;48.758;8.888;2023-06-24T13:41:39;36.10;28.60
7708;DHT22;3896;48.758;8.888;2023-06-24T13:44:05;36.20;28.90
7708;DHT22;3896;48.758;8.888;2023-06-24T13:46:32;36.20;28.80
7708;DHT22;3896;48.758;8.888;2023-06-24T13:48:58;36.40;28.70
7708;DHT22;3896;48.758;8.888;2023-06-24T13:51:24;36.50;28.30
7708;DHT22;3896;48.758;8.888;2023-06-24T13:53:52;36.60;28.40
7708;DHT22;3896;48.758;8.888;2023-06-24T13:56:19;36.70;28.50
7708;DHT22;3896;48.758;8.888;2023-06-24T13:58:45;36.80;28.30
7708;DHT22;3896;48.758;8.888;2023-06-24T14:01:10;36.80;28.40
7708;DHT22;3896;48.758;8.888;2023-06-24T14:03:36;37.00;28.60
7708;DHT22;3896;48.758;8.888;2023-06-24T14:06:02;37.00;28.20
7708;DHT22;3896;48.758;8.888;2023-06-24T14:08:29;37.10;27.80
7708;DHT22;3896;48.758;8.888;2023-06-24T14:10:56;37.20;27.70
7708;DHT22;3896;48.758;8.888;2023-06-24T14:13:22;37.20;27.10
7708;DHT22;3896;48.758;8.888;2023-06-24T14:15:48;37.30;27.40
7708;DHT22;3896;48.758;8.888;2023-06-24T14:18:14;37.40;27.30
7708;DHT22;3896;48.758;8.888;2023-06-24T14:20:39;37.40;27.10
7708;DHT22;3896;48.758;8.888;2023-06-24T14:23:05;37.40;27.30
7708;DHT22;3896;48.758;8.888;2023-06-24T14:25:31;37.50;27.60
7708;DHT22;3896;48.758;8.888;2023-06-24T14:27:57;37.50;27.80
7708;DHT22;3896;48.758;8.888;2023-06-24T14:30:22;37.60;27.40
7708;DHT22;3896;48.758;8.888;2023-06-24T14:32:48;37.70;27.10
7708;DHT22;3896;48.758;8.888;2023-06-24T14:35:13;37.80;27.10
7708;DHT22;3896;48.758;8.888;2023-06-24T14:37:39;37.90;27.50
7708;DHT22;3896;48.758;8.888;2023-06-24T14:40:05;37.90;27.20
7708;DHT22;3896;48.758;8.888;2023-06-24T14:42:31;37.90;26.80
7708;DHT22;3896;48.758;8.888;2023-06-24T14:44:57;38.00;26.80
7708;DHT22;3896;48.758;8.888;2023-06-24T14:47:22;38.00;26.50
7708;DHT22;3896;48.758;8.888;2023-06-24T14:49:48;38.00;26.70
7708;DHT22;3896;48.758;8.888;2023-06-24T14:52:14;38.10;26.80
7708;DHT22;3896;48.758;8.888;2023-06-24T14:54:39;38.10;27.20
7708;DHT22;3896;48.758;8.888;2023-06-24T14:57:05;38.10;27.10
7708;DHT22;3896;48.758;8.888;2023-06-24T14:59:30;38.10;27.40
7708;DHT22;3896;48.758;8.888;2023-06-24T15:01:56;38.00;27.60
7708;DHT22;3896;48.758;8.888;2023-06-24T15:04:21;38.00;27.60
7708;DHT22;3896;48.758;8.888;2023-06-24T15:06:47;38.10;27.10
7708;DHT22;3896;48.758;8.888;2023-06-24T15:09:12;38.00;27.00
7708;DHT22;3896;48.758;8.888;2023-06-24T15:11:38;38.00;27.30
7708;DHT22;3896;48.758;8.888;2023-06-24T15:14:03;38.00;27.60
7708;DHT22;3896;48.758;8.888;2023-06-24T15:16:29;38.00;27.60
7708;DHT22;3896;48.758;8.888;2023-06-24T15:18:54;38.00;27.40
7708;DHT22;3896;48.758;8.888;2023-06-24T15:21:20;38.10;27.10
7708;DHT22;3896;48.758;8.888;2023-06-24T15:23:46;38.00;26.80
7708;DHT22;3896;48.758;8.888;2023-06-24T15:26:12;38.00;26.50
7708;DHT22;3896;48.758;8.888;2023-06-24T15:28:37;37.90;26.50
7708;DHT22;3896;48.758;8.888;2023-06-24T15:31:03;37.80;26.90
7708;DHT22;3896;48.758;8.888;2023-06-24T15:33:29;37.60;27.30
7708;DHT22;3896;48.758;8.888;2023-06-24T15:35:54;37.50;27.70
7708;DHT22;3896;48.758;8.888;2023-06-24T15:38:20;37.40;28.10
7708;DHT22;3896;48.758;8.888;2023-06-24T15:40:46;37.30;28.30
7708;DHT22;3896;48.758;8.888;2023-06-24T15:43:12;37.10;28.60
7708;DHT22;3896;48.758;8.888;2023-06-24T15:45:38;37.00;28.70
7708;DHT22;3896;48.758;8.888;2023-06-24T15:48:04;36.90;28.50
7708;DHT22;3896;48.758;8.888;2023-06-24T15:50:30;36.70;28.60
7708;DHT22;3896;48.758;8.888;2023-06-24T15:52:56;36.60;28.70
7708;DHT22;3896;48.758;8.888;2023-06-24T15:55:21;36.40;28.80
7708;DHT22;3896;48.758;8.888;2023-06-24T15:57:47;36.20;28.60
7708;DHT22;3896;48.758;8.888;2023-06-24T16:00:13;36.10;28.70
7708;DHT22;3896;48.758;8.888;2023-06-24T16:02:39;35.90;28.70
7708;DHT22;3896;48.758;8.888;2023-06-24T16:05:04;35.70;29.10
7708;DHT22;3896;48.758;8.888;2023-06-24T16:07:34;35.70;29.20
7708;DHT22;3896;48.758;8.888;2023-06-24T16:10:00;35.50;29.50
7708;DHT22;3896;48.758;8.888;2023-06-24T16:12:26;35.30;29.60
7708;DHT22;3896;48.758;8.888;2023-06-24T16:14:52;35.10;29.70
7708;DHT22;3896;48.758;8.888;2023-06-24T16:17:18;35.00;29.90
7708;DHT22;3896;48.758;8.888;2023-06-24T16:19:44;34.90;29.90
7708;DHT22;3896;48.758;8.888;2023-06-24T16:22:09;34.70;30.00
7708;DHT22;3896;48.758;8.888;2023-06-24T16:24:35;34.60;30.40